sensor_id;sensor_type;location;lat;lon;timestamp;P1;durP1;ratioP1;P2;durP2;ratioP2
30096;SDS011;16915;51.466;3.610;2024-01-10T00:01:43;2.53;;;1.73;;
30096;SDS011;16915;51.466;3.610;2024-01-10T00:04:08;6.32;;;0.98;;
30096;SDS011;16915;51.466;3.610;2024-01-10T00:06:34;3.33;;;1.73;;
30096;SDS011;16915;51.466;3.610;2024-01-10T00:08:59;3.42;;;1.42;;
30096;SDS011;16915;51.466;3.610;2024-01-10T00:11:25;1.45;;;1.35;;
30096;SDS011;16915;51.466;3.610;2024-01-10T00:13:50;4.32;;;1.45;;
30096;SDS011;16915;51.466;3.610;2024-01-10T00:16:16;2.05;;;1.35;;
30096;SDS011;16915;51.466;3.610;2024-01-10T00:18:42;4.70;;;1.98;;
30096;SDS011;16915;51.466;3.610;2024-01-10T00:21:08;2.72;;;1.58;;
30096;SDS011;16915;51.466;3.610;2024-01-10T00:23:33;2.80;;;1.65;;
30096;SDS011;16915;51.466;3.610;2024-01-10T00:25:59;1.80;;;1.42;;
30096;SDS011;16915;51.466;3.610;2024-01-10T00:28:25;3.08;;;1.20;;
30096;SDS011;16915;51.466;3.610;2024-01-10T00:30:51;3.78;;;1.58;;
30096;SDS011;16915;51.466;3.610;2024-01-10T00:33:16;1.40;;;1.30;;
30096;SDS011;16915;51.466;3.610;2024-01-10T00:35:42;2.97;;;2.13;;
30096;SDS011;16915;51.466;3.610;2024-01-10T00:38:08;3.20;;;1.73;;
30096;SDS011;16915;51.466;3.610;2024-01-10T00:40:34;3.65;;;1.42;;
30096;SDS011;16915;51.466;3.610;2024-01-10T00:42:59;2.92;;;1.83;;
30096;SDS011;16915;51.466;3.610;2024-01-10T00:45:25;2.67;;;1.45;;
30096;SDS011;16915;51.466;3.610;2024-01-10T00:47:51;2.72;;;1.75;;
30096;SDS011;16915;51.466;3.610;2024-01-10T00:50:17;3.03;;;1.63;;
30096;SDS011;16915;51.466;3.610;2024-01-10T00:52:43;2.75;;;2.00;;
30096;SDS011;16915;51.466;3.610;2024-01-10T00:55:09;4.43;;;2.17;;
30096;SDS011;16915;51.466;3.610;2024-01-10T00:57:35;1.70;;;1.33;;
30096;SDS011;16915;51.466;3.610;2024-01-10T01:00:03;2.25;;;1.90;;
30096;SDS011;16915;51.466;3.610;2024-01-10T01:02:32;3.22;;;1.60;;
30096;SDS011;16915;51.466;3.610;2024-01-10T01:04:58;2.92;;;1.48;;
30096;SDS011;16915;51.466;3.610;2024-01-10T01:07:23;2.55;;;1.42;;
30096;SDS011;16915;51.466;3.610;2024-01-10T01:09:49;2.70;;;1.80;;
30096;SDS011;16915;51.466;3.610;2024-01-10T01:12:14;2.83;;;1.55;;
30096;SDS011;16915;51.466;3.610;2024-01-10T01:14:40;3.13;;;1.42;;
30096;SDS011;16915;51.466;3.610;2024-01-10T01:17:06;3.72;;;1.83;;
30096;SDS011;16915;51.466;3.610;2024-01-10T01:19:31;1.70;;;1.33;;
30096;SDS011;16915;51.466;3.610;2024-01-10T01:21:57;3.25;;;1.35;;
30096;SDS011;16915;51.466;3.610;2024-01-10T01:24:22;1.98;;;1.60;;
30096;SDS011;16915;51.466;3.610;2024-01-10T01:26:48;2.22;;;1.70;;
30096;SDS011;16915;51.466;3.610;2024-01-10T01:29:14;2.28;;;1.42;;
30096;SDS011;16915;51.466;3.610;2024-01-10T01:31:39;3.55;;;1.95;;
30096;SDS011;16915;51.466;3.610;2024-01-10T01:34:05;1.75;;;1.15;;
30096;SDS011;16915;51.466;3.610;2024-01-10T01:36:30;2.08;;;1.50;;
30096;SDS011;16915;51.466;3.610;2024-01-10T01:38:56;1.67;;;1.42;;
30096;SDS011;16915;51.466;3.610;2024-01-10T01:41:21;3.20;;;1.63;;
30096;SDS011;16915;51.466;3.610;2024-01-10T01:43:47;2.53;;;1.52;;
30096;SDS011;16915;51.466;3.610;2024-01-10T01:46:13;3.30;;;1.63;;
30096;SDS011;16915;51.466;3.610;2024-01-10T01:48:39;5.25;;;1.85;;
30096;SDS011;16915;51.466;3.610;2024-01-10T01:51:05;3.38;;;1.52;;
30096;SDS011;16915;51.466;3.610;2024-01-10T01:53:35;2.28;;;1.38;;
30096;SDS011;16915;51.466;3.610;2024-01-10T01:56:03;3.13;;;1.40;;
30096;SDS011;16915;51.466;3.610;2024-01-10T02:00:59;3.42;;;1.50;;
30096;SDS011;16915;51.466;3.610;2024-01-10T02:03:27;2.45;;;1.58;;
30096;SDS011;16915;51.466;3.610;2024-01-10T02:05:52;3.75;;;1.25;;
30096;SDS011;16915;51.466;3.610;2024-01-10T02:08:19;3.05;;;2.00;;
30096;SDS011;16915;51.466;3.610;2024-01-10T02:10:45;4.93;;;1.60;;
30096;SDS011;16915;51.466;3.610;2024-01-10T02:13:11;3.78;;;1.58;;
30096;SDS011;16915;51.466;3.610;2024-01-10T02:15:37;4.40;;;1.48;;
30096;SDS011;16915;51.466;3.610;2024-01-10T02:18:03;4.10;;;1.80;;
30096;SDS011;16915;51.466;3.610;2024-01-10T02:20:30;1.55;;;1.30;;
30096;SDS011;16915;51.466;3.610;2024-01-10T02:22:56;4.00;;;1.92;;
30096;SDS011;16915;51.466;3.610;2024-01-10T02:25:22;1.90;;;1.30;;
30096;SDS011;16915;51.466;3.610;2024-01-10T02:27:47;4.80;;;1.83;;
30096;SDS011;16915;51.466;3.610;2024-01-10T02:30:13;3.65;;;1.52;;
30096;SDS011;16915;51.466;3.610;2024-01-10T02:32:39;2.60;;;1.80;;
30096;SDS011;16915;51.466;3.610;2024-01-10T02:35:05;2.70;;;1.45;;
30096;SDS011;16915;51.466;3.610;2024-01-10T02:37:31;3.55;;;1.80;;
30096;SDS011;16915;51.466;3.610;2024-01-10T02:39:57;3.28;;;1.50;;
30096;SDS011;16915;51.466;3.610;2024-01-10T02:42:22;3.78;;;1.67;;
30096;SDS011;16915;51.466;3.610;2024-01-10T02:44:48;3.67;;;1.65;;
30096;SDS011;16915;51.466;3.610;2024-01-10T02:47:13;2.97;;;1.73;;
30096;SDS011;16915;51.466;3.610;2024-01-10T02:49:40;2.13;;;1.75;;
30096;SDS011;16915;51.466;3.610;2024-01-10T02:52:05;2.90;;;1.60;;
30096;SDS011;16915;51.466;3.610;2024-01-10T02:54:31;1.73;;;1.17;;
30096;SDS011;16915;51.466;3.610;2024-01-10T02:56:56;1.88;;;1.48;;
30096;SDS011;16915;51.466;3.610;2024-01-10T02:59:22;3.00;;;1.77;;
30096;SDS011;16915;51.466;3.610;2024-01-10T03:01:47;2.35;;;1.65;;
30096;SDS011;16915;51.466;3.610;2024-01-10T03:04:13;2.80;;;1.60;;
30096;SDS011;16915;51.466;3.610;2024-01-10T03:06:39;3.17;;;1.73;;
30096;SDS011;16915;51.466;3.610;2024-01-10T03:09:05;3.15;;;1.40;;
30096;SDS011;16915;51.466;3.610;2024-01-10T03:11:30;4.45;;;1.48;;
30096;SDS011;16915;51.466;3.610;2024-01-10T03:14:03;3.88;;;1.85;;
30096;SDS011;16915;51.466;3.610;2024-01-10T03:16:32;3.10;;;1.38;;
30096;SDS011;16915;51.466;3.610;2024-01-10T03:18:58;2.95;;;1.45;;
30096;SDS011;16915;51.466;3.610;2024-01-10T03:21:24;1.73;;;1.20;;
30096;SDS011;16915;51.466;3.610;2024-01-10T03:23:51;2.22;;;1.48;;
30096;SDS011;16915;51.466;3.610;2024-01-10T03:26:24;1.77;;;1.38;;
30096;SDS011;16915;51.466;3.610;2024-01-10T03:28:50;2.58;;;1.65;;
30096;SDS011;16915;51.466;3.610;2024-01-10T03:31:17;2.65;;;1.40;;
30096;SDS011;16915;51.466;3.610;2024-01-10T03:33:42;3.22;;;1.42;;
30096;SDS011;16915;51.466;3.610;2024-01-10T03:36:09;3.08;;;1.52;;
30096;SDS011;16915;51.466;3.610;2024-01-10T03:38:39;2.33;;;1.73;;
30096;SDS011;16915;51.466;3.610;2024-01-10T03:41:04;3.40;;;2.03;;
30096;SDS011;16915;51.466;3.610;2024-01-10T03:43:30;3.10;;;1.77;;
30096;SDS011;16915;51.466;3.610;2024-01-10T03:45:55;4.05;;;1.98;;
30096;SDS011;16915;51.466;3.610;2024-01-10T03:48:21;1.40;;;1.30;;
30096;SDS011;16915;51.466;3.610;2024-01-10T03:50:47;3.25;;;1.70;;
30096;SDS011;16915;51.466;3.610;2024-01-10T03:53:13;2.53;;;1.73;;
30096;SDS011;16915;51.466;3.610;2024-01-10T03:55:39;1.63;;;1.38;;
30096;SDS011;16915;51.466;3.610;2024-01-10T03:58:04;4.30;;;1.75;;
30096;SDS011;16915;51.466;3.610;2024-01-10T04:00:30;2.45;;;1.40;;
30096;SDS011;16915;51.466;3.610;2024-01-10T04:02:56;5.05;;;2.08;;
30096;SDS011;16915;51.466;3.610;2024-01-10T04:05:21;3.63;;;1.60;;
30096;SDS011;16915;51.466;3.610;2024-01-10T04:07:49;2.58;;;1.80;;
30096;SDS011;16915;51.466;3.610;2024-01-10T04:10:15;2.83;;;1.63;;
30096;SDS011;16915;51.466;3.610;2024-01-10T04:12:41;3.70;;;2.00;;
30096;SDS011;16915;51.466;3.610;2024-01-10T04:15:07;3.55;;;1.75;;
30096;SDS011;16915;51.466;3.610;2024-01-10T04:17:33;3.70;;;2.00;;
30096;SDS011;16915;51.466;3.610;2024-01-10T04:19:58;4.68;;;1.98;;
30096;SDS011;16915;51.466;3.610;2024-01-10T04:22:24;4.88;;;1.85;;
30096;SDS011;16915;51.466;3.610;2024-01-10T04:24:50;2.22;;;1.20;;
30096;SDS011;16915;51.466;3.610;2024-01-10T04:27:16;2.70;;;1.77;;
30096;SDS011;16915;51.466;3.610;2024-01-10T04:29:43;2.28;;;1.40;;
30096;SDS011;16915;51.466;3.610;2024-01-10T04:32:09;5.82;;;1.73;;
30096;SDS011;16915;51.466;3.610;2024-01-10T04:34:35;4.78;;;1.90;;
30096;SDS011;16915;51.466;3.610;2024-01-10T04:37:00;4.57;;;1.80;;
30096;SDS011;16915;51.466;3.610;2024-01-10T04:39:26;6.03;;;1.90;;
30096;SDS011;16915;51.466;3.610;2024-01-10T04:41:52;3.78;;;2.38;;
30096;SDS011;16915;51.466;3.610;2024-01-10T04:44:17;3.00;;;1.65;;
30096;SDS011;16915;51.466;3.610;2024-01-10T04:46:43;4.05;;;2.08;;
30096;SDS011;16915;51.466;3.610;2024-01-10T04:49:09;3.40;;;1.75;;
30096;SDS011;16915;51.466;3.610;2024-01-10T04:51:35;3.70;;;1.80;;
30096;SDS011;16915;51.466;3.610;2024-01-10T04:54:00;2.45;;;1.55;;
30096;SDS011;16915;51.466;3.610;2024-01-10T04:56:26;8.32;;;2.20;;
30096;SDS011;16915;51.466;3.610;2024-01-10T04:58:52;4.50;;;1.77;;
30096;SDS011;16915;51.466;3.610;2024-01-10T05:01:17;4.47;;;1.70;;
30096;SDS011;16915;51.466;3.610;2024-01-10T05:03:43;2.83;;;1.67;;
30096;SDS011;16915;51.466;3.610;2024-01-10T05:06:09;2.10;;;1.90;;
30096;SDS011;16915;51.466;3.610;2024-01-10T05:08:35;2.85;;;1.60;;
30096;SDS011;16915;51.466;3.610;2024-01-10T05:11:01;4.53;;;2.00;;
30096;SDS011;16915;51.466;3.610;2024-01-10T05:13:27;3.85;;;1.90;;
30096;SDS011;16915;51.466;3.610;2024-01-10T05:15:53;2.60;;;1.27;;
30096;SDS011;16915;51.466;3.610;2024-01-10T05:18:19;3.55;;;1.63;;
30096;SDS011;16915;51.466;3.610;2024-01-10T05:20:45;2.97;;;1.77;;
30096;SDS011;16915;51.466;3.610;2024-01-10T05:23:11;5.50;;;1.95;;
30096;SDS011;16915;51.466;3.610;2024-01-10T05:25:37;3.50;;;2.20;;
30096;SDS011;16915;51.466;3.610;2024-01-10T05:28:02;4.82;;;2.03;;
30096;SDS011;16915;51.466;3.610;2024-01-10T05:30:28;2.22;;;1.80;;
30096;SDS011;16915;51.466;3.610;2024-01-10T05:32:54;3.95;;;2.00;;
30096;SDS011;16915;51.466;3.610;2024-01-10T05:35:19;2.50;;;1.35;;
30096;SDS011;16915;51.466;3.610;2024-01-10T05:37:45;5.45;;;2.20;;
30096;SDS011;16915;51.466;3.610;2024-01-10T05:40:11;4.45;;;1.83;;
30096;SDS011;16915;51.466;3.610;2024-01-10T05:42:36;5.13;;;1.95;;
30096;SDS011;16915;51.466;3.610;2024-01-10T05:45:03;4.47;;;2.22;;
30096;SDS011;16915;51.466;3.610;2024-01-10T05:47:29;4.78;;;2.20;;
30096;SDS011;16915;51.466;3.610;2024-01-10T05:49:55;4.22;;;2.13;;
30096;SDS011;16915;51.466;3.610;2024-01-10T05:52:20;7.93;;;1.95;;
30096;SDS011;16915;51.466;3.610;2024-01-10T05:54:47;4.68;;;1.60;;
30096;SDS011;16915;51.466;3.610;2024-01-10T05:57:13;5.28;;;2.17;;
30096;SDS011;16915;51.466;3.610;2024-01-10T05:59:39;2.17;;;1.80;;
30096;SDS011;16915;51.466;3.610;2024-01-10T06:02:05;2.67;;;1.90;;
30096;SDS011;16915;51.466;3.610;2024-01-10T06:04:31;2.45;;;1.42;;
30096;SDS011;16915;51.466;3.610;2024-01-10T06:06:57;3.47;;;2.05;;
30096;SDS011;16915;51.466;3.610;2024-01-10T06:09:23;2.00;;;1.67;;
30096;SDS011;16915;51.466;3.610;2024-01-10T06:11:49;3.40;;;2.08;;
30096;SDS011;16915;51.466;3.610;2024-01-10T06:14:15;3.78;;;1.63;;
30096;SDS011;16915;51.466;3.610;2024-01-10T06:16:41;1.90;;;1.10;;
30096;SDS011;16915;51.466;3.610;2024-01-10T06:19:07;1.88;;;1.45;;
30096;SDS011;16915;51.466;3.610;2024-01-10T06:21:32;3.13;;;1.90;;
30096;SDS011;16915;51.466;3.610;2024-01-10T06:23:58;4.18;;;2.25;;
30096;SDS011;16915;51.466;3.610;2024-01-10T06:26:23;3.40;;;1.80;;
30096;SDS011;16915;51.466;3.610;2024-01-10T06:28:49;3.03;;;1.38;;
30096;SDS011;16915;51.466;3.610;2024-01-10T06:31:15;5.25;;;1.88;;
30096;SDS011;16915;51.466;3.610;2024-01-10T06:33:40;3.60;;;2.28;;
30096;SDS011;16915;51.466;3.610;2024-01-10T06:36:06;4.28;;;1.80;;
30096;SDS011;16915;51.466;3.610;2024-01-10T06:38:32;4.15;;;2.53;;
30096;SDS011;16915;51.466;3.610;2024-01-10T06:40:57;5.07;;;2.15;;
30096;SDS011;16915;51.466;3.610;2024-01-10T06:43:23;5.93;;;2.30;;
30096;SDS011;16915;51.466;3.610;2024-01-10T06:45:49;4.97;;;2.25;;
30096;SDS011;16915;51.466;3.610;2024-01-10T06:48:14;5.70;;;2.40;;
30096;SDS011;16915;51.466;3.610;2024-01-10T06:50:40;3.30;;;1.70;;
30096;SDS011;16915;51.466;3.610;2024-01-10T06:53:06;4.65;;;1.80;;
30096;SDS011;16915;51.466;3.610;2024-01-10T06:55:32;3.40;;;2.10;;
30096;SDS011;16915;51.466;3.610;2024-01-10T06:57:57;2.45;;;1.77;;
30096;SDS011;16915;51.466;3.610;2024-01-10T07:00:23;2.85;;;1.67;;
30096;SDS011;16915;51.466;3.610;2024-01-10T07:02:49;2.67;;;1.50;;
30096;SDS011;16915;51.466;3.610;2024-01-10T07:05:14;3.10;;;2.00;;
30096;SDS011;16915;51.466;3.610;2024-01-10T07:07:41;3.88;;;1.50;;
30096;SDS011;16915;51.466;3.610;2024-01-10T07:10:07;5.25;;;1.52;;
30096;SDS011;16915;51.466;3.610;2024-01-10T07:12:33;3.35;;;1.92;;
30096;SDS011;16915;51.466;3.610;2024-01-10T07:14:59;2.08;;;1.30;;
30096;SDS011;16915;51.466;3.610;2024-01-10T07:17:25;3.80;;;2.10;;
30096;SDS011;16915;51.466;3.610;2024-01-10T07:19:51;3.47;;;1.75;;
30096;SDS011;16915;51.466;3.610;2024-01-10T07:22:16;3.85;;;2.08;;
30096;SDS011;16915;51.466;3.610;2024-01-10T07:24:43;3.58;;;2.28;;
30096;SDS011;16915;51.466;3.610;2024-01-10T07:27:08;3.42;;;1.88;;
30096;SDS011;16915;51.466;3.610;2024-01-10T07:29:34;3.25;;;1.85;;
30096;SDS011;16915;51.466;3.610;2024-01-10T07:32:00;1.98;;;1.60;;
30096;SDS011;16915;51.466;3.610;2024-01-10T07:34:26;2.65;;;1.83;;
30096;SDS011;16915;51.466;3.610;2024-01-10T07:36:51;8.98;;;2.08;;
30096;SDS011;16915;51.466;3.610;2024-01-10T07:39:19;4.47;;;2.03;;
30096;SDS011;16915;51.466;3.610;2024-01-10T07:41:44;3.45;;;2.13;;
30096;SDS011;16915;51.466;3.610;2024-01-10T07:44:10;5.75;;;2.20;;
30096;SDS011;16915;51.466;3.610;2024-01-10T07:46:36;5.13;;;2.28;;
30096;SDS011;16915;51.466;3.610;2024-01-10T07:49:04;8.02;;;2.58;;
30096;SDS011;16915;51.466;3.610;2024-01-10T07:51:30;6.68;;;1.63;;
30096;SDS011;16915;51.466;3.610;2024-01-10T07:53:57;6.10;;;1.73;;
30096;SDS011;16915;51.466;3.610;2024-01-10T07:56:24;3.03;;;2.00;;
30096;SDS011;16915;51.466;3.610;2024-01-10T07:58:49;4.25;;;1.70;;
30096;SDS011;16915;51.466;3.610;2024-01-10T08:01:16;6.43;;;2.70;;
30096;SDS011;16915;51.466;3.610;2024-01-10T08:03:42;3.67;;;2.25;;
30096;SDS011;16915;51.466;3.610;2024-01-10T08:06:07;8.23;;;2.33;;
30096;SDS011;16915;51.466;3.610;2024-01-10T08:08:33;4.68;;;2.35;;
30096;SDS011;16915;51.466;3.610;2024-01-10T08:10:59;3.83;;;1.88;;
30096;SDS011;16915;51.466;3.610;2024-01-10T08:13:24;3.17;;;1.98;;
30096;SDS011;16915;51.466;3.610;2024-01-10T08:15:50;3.90;;;2.35;;
30096;SDS011;16915;51.466;3.610;2024-01-10T08:18:16;3.30;;;2.28;;
30096;SDS011;16915;51.466;3.610;2024-01-10T08:20:41;3.50;;;2.28;;
30096;SDS011;16915;51.466;3.610;2024-01-10T08:23:07;3.17;;;2.00;;
30096;SDS011;16915;51.466;3.610;2024-01-10T08:25:33;5.07;;;1.95;;
30096;SDS011;16915;51.466;3.610;2024-01-10T08:27:58;6.28;;;2.30;;
30096;SDS011;16915;51.466;3.610;2024-01-10T08:30:24;3.30;;;1.95;;
30096;SDS011;16915;51.466;3.610;2024-01-10T08:32:50;3.88;;;2.25;;
30096;SDS011;16915;51.466;3.610;2024-01-10T08:35:15;3.28;;;2.20;;
30096;SDS011;16915;51.466;3.610;2024-01-10T08:37:41;5.22;;;2.17;;
30096;SDS011;16915;51.466;3.610;2024-01-10T08:40:11;4.40;;;2.77;;
30096;SDS011;16915;51.466;3.610;2024-01-10T08:42:39;3.70;;;2.50;;
30096;SDS011;16915;51.466;3.610;2024-01-10T08:45:06;1.60;;;1.50;;
30096;SDS011;16915;51.466;3.610;2024-01-10T08:47:34;2.83;;;1.77;;
30096;SDS011;16915;51.466;3.610;2024-01-10T08:50:04;2.55;;;1.88;;
30096;SDS011;16915;51.466;3.610;2024-01-10T08:52:30;2.42;;;1.92;;
30096;SDS011;16915;51.466;3.610;2024-01-10T08:54:56;3.88;;;2.25;;
30096;SDS011;16915;51.466;3.610;2024-01-10T08:57:22;4.55;;;2.03;;
30096;SDS011;16915;51.466;3.610;2024-01-10T08:59:47;3.45;;;2.00;;
30096;SDS011;16915;51.466;3.610;2024-01-10T09:02:13;7.50;;;2.38;;
30096;SDS011;16915;51.466;3.610;2024-01-10T09:04:39;2.80;;;1.83;;
30096;SDS011;16915;51.466;3.610;2024-01-10T09:07:05;3.13;;;1.92;;
30096;SDS011;16915;51.466;3.610;2024-01-10T09:09:31;4.07;;;2.03;;
30096;SDS011;16915;51.466;3.610;2024-01-10T09:11:57;3.45;;;1.92;;
30096;SDS011;16915;51.466;3.610;2024-01-10T09:14:22;4.72;;;2.17;;
30096;SDS011;16915;51.466;3.610;2024-01-10T09:16:48;3.60;;;1.98;;
30096;SDS011;16915;51.466;3.610;2024-01-10T09:19:14;3.25;;;2.25;;
30096;SDS011;16915;51.466;3.610;2024-01-10T09:21:39;5.03;;;2.20;;
30096;SDS011;16915;51.466;3.610;2024-01-10T09:24:05;6.68;;;2.50;;
30096;SDS011;16915;51.466;3.610;2024-01-10T09:26:33;4.88;;;2.58;;
30096;SDS011;16915;51.466;3.610;2024-01-10T09:28:59;3.25;;;1.88;;
30096;SDS011;16915;51.466;3.610;2024-01-10T09:31:25;3.65;;;2.60;;
30096;SDS011;16915;51.466;3.610;2024-01-10T09:33:50;3.47;;;2.80;;
30096;SDS011;16915;51.466;3.610;2024-01-10T09:36:16;5.80;;;2.50;;
30096;SDS011;16915;51.466;3.610;2024-01-10T09:38:42;6.28;;;2.47;;
30096;SDS011;16915;51.466;3.610;2024-01-10T09:41:07;4.28;;;2.30;;
30096;SDS011;16915;51.466;3.610;2024-01-10T09:43:35;2.63;;;2.08;;
30096;SDS011;16915;51.466;3.610;2024-01-10T09:46:01;2.55;;;2.08;;
30096;SDS011;16915;51.466;3.610;2024-01-10T09:48:29;2.75;;;1.70;;
30096;SDS011;16915;51.466;3.610;2024-01-10T09:50:55;3.17;;;2.10;;
30096;SDS011;16915;51.466;3.610;2024-01-10T09:53:22;4.28;;;1.92;;
30096;SDS011;16915;51.466;3.610;2024-01-10T09:55:49;3.08;;;1.70;;
30096;SDS011;16915;51.466;3.610;2024-01-10T09:58:14;5.75;;;1.98;;
30096;SDS011;16915;51.466;3.610;2024-01-10T10:00:41;2.78;;;2.00;;
30096;SDS011;16915;51.466;3.610;2024-01-10T10:03:10;4.47;;;2.38;;
30096;SDS011;16915;51.466;3.610;2024-01-10T10:05:37;5.55;;;2.60;;
30096;SDS011;16915;51.466;3.610;2024-01-10T10:08:06;6.15;;;3.13;;
30096;SDS011;16915;51.466;3.610;2024-01-10T10:10:32;4.82;;;2.22;;
30096;SDS011;16915;51.466;3.610;2024-01-10T10:12:58;4.10;;;2.25;;
30096;SDS011;16915;51.466;3.610;2024-01-10T10:15:24;2.33;;;1.25;;
30096;SDS011;16915;51.466;3.610;2024-01-10T10:17:53;5.68;;;2.65;;
30096;SDS011;16915;51.466;3.610;2024-01-10T10:20:26;5.47;;;3.30;;
30096;SDS011;16915;51.466;3.610;2024-01-10T10:23:07;4.70;;;2.72;;
30096;SDS011;16915;51.466;3.610;2024-01-10T10:25:42;6.00;;;2.60;;
30096;SDS011;16915;51.466;3.610;2024-01-10T10:30:34;3.75;;;2.72;;
30096;SDS011;16915;51.466;3.610;2024-01-10T10:33:00;3.80;;;2.10;;
30096;SDS011;16915;51.466;3.610;2024-01-10T10:35:27;5.28;;;2.22;;
30096;SDS011;16915;51.466;3.610;2024-01-10T10:37:53;4.72;;;2.40;;
30096;SDS011;16915;51.466;3.610;2024-01-10T10:40:19;4.80;;;2.38;;
30096;SDS011;16915;51.466;3.610;2024-01-10T10:42:46;5.30;;;3.17;;
30096;SDS011;16915;51.466;3.610;2024-01-10T10:45:14;3.72;;;2.25;;
30096;SDS011;16915;51.466;3.610;2024-01-10T10:47:44;5.45;;;2.80;;
30096;SDS011;16915;51.466;3.610;2024-01-10T10:50:15;4.93;;;2.85;;
30096;SDS011;16915;51.466;3.610;2024-01-10T10:52:46;4.20;;;2.83;;
30096;SDS011;16915;51.466;3.610;2024-01-10T10:55:13;4.88;;;2.72;;
30096;SDS011;16915;51.466;3.610;2024-01-10T10:57:41;8.23;;;3.20;;
30096;SDS011;16915;51.466;3.610;2024-01-10T11:00:10;6.32;;;2.80;;
30096;SDS011;16915;51.466;3.610;2024-01-10T11:02:40;2.80;;;1.77;;
30096;SDS011;16915;51.466;3.610;2024-01-10T11:05:06;4.18;;;3.00;;
30096;SDS011;16915;51.466;3.610;2024-01-10T11:07:40;6.35;;;3.38;;
30096;SDS011;16915;51.466;3.610;2024-01-10T11:10:20;6.25;;;3.17;;
30096;SDS011;16915;51.466;3.610;2024-01-10T11:20:57;5.93;;;2.70;;
30096;SDS011;16915;51.466;3.610;2024-01-10T11:23:44;5.72;;;2.85;;
30096;SDS011;16915;51.466;3.610;2024-01-10T11:26:14;4.97;;;3.05;;
30096;SDS011;16915;51.466;3.610;2024-01-10T11:28:41;6.75;;;3.13;;
30096;SDS011;16915;51.466;3.610;2024-01-10T11:31:07;7.95;;;2.85;;
30096;SDS011;16915;51.466;3.610;2024-01-10T11:33:34;3.97;;;2.38;;
30096;SDS011;16915;51.466;3.610;2024-01-10T11:36:15;7.63;;;3.53;;
30096;SDS011;16915;51.466;3.610;2024-01-10T11:41:23;6.90;;;3.13;;
30096;SDS011;16915;51.466;3.610;2024-01-10T11:46:40;3.83;;;2.72;;
30096;SDS011;16915;51.466;3.610;2024-01-10T11:49:07;6.40;;;3.15;;
30096;SDS011;16915;51.466;3.610;2024-01-10T11:51:41;5.05;;;3.47;;
30096;SDS011;16915;51.466;3.610;2024-01-10T11:54:08;8.98;;;3.75;;
30096;SDS011;16915;51.466;3.610;2024-01-10T11:56:38;6.40;;;3.50;;
30096;SDS011;16915;51.466;3.610;2024-01-10T11:59:06;7.50;;;3.65;;
30096;SDS011;16915;51.466;3.610;2024-01-10T12:01:36;7.70;;;3.70;;
30096;SDS011;16915;51.466;3.610;2024-01-10T12:04:03;7.13;;;3.67;;
30096;SDS011;16915;51.466;3.610;2024-01-10T12:06:30;10.30;;;3.85;;
30096;SDS011;16915;51.466;3.610;2024-01-10T12:08:56;6.65;;;3.85;;
30096;SDS011;16915;51.466;3.610;2024-01-10T12:11:22;6.63;;;4.10;;
30096;SDS011;16915;51.466;3.610;2024-01-10T12:13:48;5.10;;;3.42;;
30096;SDS011;16915;51.466;3.610;2024-01-10T12:16:14;7.43;;;4.05;;
30096;SDS011;16915;51.466;3.610;2024-01-10T12:18:40;8.52;;;4.30;;
30096;SDS011;16915;51.466;3.610;2024-01-10T12:21:07;4.85;;;3.45;;
30096;SDS011;16915;51.466;3.610;2024-01-10T12:23:34;4.55;;;3.67;;
30096;SDS011;16915;51.466;3.610;2024-01-10T12:26:04;7.45;;;4.18;;
30096;SDS011;16915;51.466;3.610;2024-01-10T12:28:32;6.72;;;4.60;;
30096;SDS011;16915;51.466;3.610;2024-01-10T12:30:59;6.35;;;4.15;;
30096;SDS011;16915;51.466;3.610;2024-01-10T12:33:24;5.38;;;4.15;;
30096;SDS011;16915;51.466;3.610;2024-01-10T12:36:06;6.63;;;4.13;;
30096;SDS011;16915;51.466;3.610;2024-01-10T12:38:35;6.72;;;4.20;;
30096;SDS011;16915;51.466;3.610;2024-01-10T12:41:04;6.57;;;4.55;;
30096;SDS011;16915;51.466;3.610;2024-01-10T12:43:31;5.28;;;4.18;;
30096;SDS011;16915;51.466;3.610;2024-01-10T12:48:29;8.25;;;4.57;;
30096;SDS011;16915;51.466;3.610;2024-01-10T12:50:56;9.13;;;4.50;;
30096;SDS011;16915;51.466;3.610;2024-01-10T12:53:22;6.63;;;4.13;;
30096;SDS011;16915;51.466;3.610;2024-01-10T12:55:48;6.20;;;4.57;;
30096;SDS011;16915;51.466;3.610;2024-01-10T12:58:13;9.50;;;4.72;;
30096;SDS011;16915;51.466;3.610;2024-01-10T13:00:39;5.72;;;3.90;;
30096;SDS011;16915;51.466;3.610;2024-01-10T13:03:05;5.80;;;3.60;;
30096;SDS011;16915;51.466;3.610;2024-01-10T13:05:31;5.95;;;3.95;;
30096;SDS011;16915;51.466;3.610;2024-01-10T13:07:56;5.80;;;4.28;;
30096;SDS011;16915;51.466;3.610;2024-01-10T13:10:22;6.68;;;4.05;;
30096;SDS011;16915;51.466;3.610;2024-01-10T13:12:48;6.90;;;4.00;;
30096;SDS011;16915;51.466;3.610;2024-01-10T13:15:13;8.00;;;4.25;;
30096;SDS011;16915;51.466;3.610;2024-01-10T13:17:39;7.93;;;4.40;;
30096;SDS011;16915;51.466;3.610;2024-01-10T13:20:05;6.68;;;4.35;;
30096;SDS011;16915;51.466;3.610;2024-01-10T13:22:31;6.20;;;4.00;;
30096;SDS011;16915;51.466;3.610;2024-01-10T13:24:57;7.97;;;4.00;;
30096;SDS011;16915;51.466;3.610;2024-01-10T13:27:22;6.68;;;4.22;;
30096;SDS011;16915;51.466;3.610;2024-01-10T13:29:48;7.28;;;4.25;;
30096;SDS011;16915;51.466;3.610;2024-01-10T13:32:13;5.80;;;3.80;;
30096;SDS011;16915;51.466;3.610;2024-01-10T13:34:40;8.13;;;4.38;;
30096;SDS011;16915;51.466;3.610;2024-01-10T13:37:06;7.65;;;4.40;;
30096;SDS011;16915;51.466;3.610;2024-01-10T13:39:32;9.85;;;4.07;;
30096;SDS011;16915;51.466;3.610;2024-01-10T13:41:58;6.60;;;3.53;;
30096;SDS011;16915;51.466;3.610;2024-01-10T13:44:23;9.88;;;4.25;;
30096;SDS011;16915;51.466;3.610;2024-01-10T13:46:49;5.90;;;3.42;;
30096;SDS011;16915;51.466;3.610;2024-01-10T13:49:16;7.30;;;4.22;;
30096;SDS011;16915;51.466;3.610;2024-01-10T13:51:41;7.05;;;3.97;;
30096;SDS011;16915;51.466;3.610;2024-01-10T13:54:08;8.55;;;4.38;;
30096;SDS011;16915;51.466;3.610;2024-01-10T13:56:33;9.43;;;4.15;;
30096;SDS011;16915;51.466;3.610;2024-01-10T13:58:59;14.07;;;4.50;;
30096;SDS011;16915;51.466;3.610;2024-01-10T14:01:24;6.88;;;4.00;;
30096;SDS011;16915;51.466;3.610;2024-01-10T14:03:51;6.07;;;3.55;;
30096;SDS011;16915;51.466;3.610;2024-01-10T14:06:17;4.78;;;3.63;;
30096;SDS011;16915;51.466;3.610;2024-01-10T14:08:42;7.57;;;4.22;;
30096;SDS011;16915;51.466;3.610;2024-01-10T14:11:10;7.70;;;4.43;;
30096;SDS011;16915;51.466;3.610;2024-01-10T14:13:36;7.63;;;4.05;;
30096;SDS011;16915;51.466;3.610;2024-01-10T14:16:01;8.95;;;4.63;;
30096;SDS011;16915;51.466;3.610;2024-01-10T14:18:27;9.70;;;3.72;;
30096;SDS011;16915;51.466;3.610;2024-01-10T14:20:52;10.27;;;4.35;;
30096;SDS011;16915;51.466;3.610;2024-01-10T14:23:18;9.82;;;4.00;;
30096;SDS011;16915;51.466;3.610;2024-01-10T14:25:43;7.28;;;4.30;;
30096;SDS011;16915;51.466;3.610;2024-01-10T14:28:09;6.90;;;3.67;;
30096;SDS011;16915;51.466;3.610;2024-01-10T14:30:35;11.38;;;4.40;;
30096;SDS011;16915;51.466;3.610;2024-01-10T14:33:00;7.53;;;3.95;;
30096;SDS011;16915;51.466;3.610;2024-01-10T14:35:26;10.82;;;4.20;;
30096;SDS011;16915;51.466;3.610;2024-01-10T14:37:51;9.75;;;4.88;;
30096;SDS011;16915;51.466;3.610;2024-01-10T14:40:18;8.27;;;4.22;;
30096;SDS011;16915;51.466;3.610;2024-01-10T14:42:43;7.50;;;3.67;;
30096;SDS011;16915;51.466;3.610;2024-01-10T14:45:10;11.32;;;4.78;;
30096;SDS011;16915;51.466;3.610;2024-01-10T14:47:36;10.10;;;4.60;;
30096;SDS011;16915;51.466;3.610;2024-01-10T14:50:01;9.40;;;4.68;;
30096;SDS011;16915;51.466;3.610;2024-01-10T14:52:28;9.13;;;4.53;;
30096;SDS011;16915;51.466;3.610;2024-01-10T14:54:54;9.23;;;4.40;;
30096;SDS011;16915;51.466;3.610;2024-01-10T14:57:20;13.10;;;5.55;;
30096;SDS011;16915;51.466;3.610;2024-01-10T14:59:46;6.63;;;3.55;;
30096;SDS011;16915;51.466;3.610;2024-01-10T15:02:12;8.80;;;4.60;;
30096;SDS011;16915;51.466;3.610;2024-01-10T15:04:39;10.25;;;4.75;;